METAR、SPECI、TAF(飛行場実況・予報)


■ METAR、SPECI(飛行場実況)

METAR RJCK 111900Z AUTO 35004KT 0100 R35/0275N FG OVC000 13/13 Q1007 RMK A2974
METAR RJCK 112000Z AUTO VRB01KT 9999 R35/0175N NCD 13/13 Q1007 RMK A2975
METAR RJCK 112100Z AUTO VRB02KT 9999 BKN000 14/14 Q1007 RMK A2975
SPECI RJCK 112134Z AUTO VRB01KT 9999 R35/1200VP2000D FEW000 16/16 Q1007 RMK A2975
SPECI RJCK 112136Z AUTO VRB01KT 9999 R35/0800VP2000D FEW000 16/16 Q1007 RMK A2975
SPECI RJCK 112137Z AUTO VRB01KT 9999 R35/0550VP2000D FEW000 15/15 Q1007 RMK A2975
SPECI RJCK 112141Z AUTO VRB02KT 9999 R35/0550VP2000D FEW000 16/16 Q1007 RMK A2975
SPECI RJCK 112146Z AUTO VRB02KT 9999 R35/0600VP2000U SCT000 16/16 Q1007 RMK A2975
SPECI RJCK 112147Z AUTO VRB02KT 9999 R35/0800VP2000U SCT000 SCT002 15/15 Q1007 RMK A2975
SPECI RJCK 112148Z AUTO VRB02KT 9999 R35/0800VP2000U SCT000 15/15 Q1007 RMK A2975
SPECI RJCK 112149Z AUTO VRB02KT 9999 R35/0800VP2000U FEW000 SCT002 16/16 Q1007 RMK A2975
METAR RJCK 112200Z AUTO 17003KT 110V210 9999 FEW000 16/16 Q1007 RMK A2974
SPECI RJCK 112225Z AUTO 16007KT 9999 R35/0650VP2000D FEW005 16/16 Q1007 RMK A2974
SPECI RJCK 112226Z AUTO 16008KT 9999 R35/0650VP2000D FEW003 SCT005 16/16 Q1007 RMK A2974
SPECI RJCK 112227Z AUTO 16008KT 9999 R35/0500VP2000D BKN003 16/16 Q1007 RMK A2974
SPECI RJCK 112228Z AUTO 16008KT 9999 R35/0500VP2000D BKN002 16/16 Q1007 RMK A2974
SPECI RJCK 112229Z AUTO 17008KT 9999 R35/0500VP2000D SCT002 SCT005 16/16 Q1007 RMK A2974
SPECI RJCK 112230Z AUTO 17008KT 9999 R35/0400VP2000D FEW002 SCT005 16/16 Q1007 RMK A2974
SPECI RJCK 112244Z AUTO 16005KT 130V210 4900 R17/P2000N BR BKN003 15/15 Q1007 RMK A2974
SPECI RJCK 112251Z AUTO 15005KT 3400 R17/P2000N BR FEW003 SCT005 15/15 Q1007 RMK A2974
SPECI RJCK 112305Z 18007KT 1500 R17/P2000N BCFG BR FEW001 BKN003 15/15 Q1007 RMK 1ST001 5ST003 A2974 8000N
SPECI RJCK 112307Z 18007KT 1600 R17/P2000N BCFG BR FEW001 BKN003 15/15 Q1007 RMK 1ST001 5ST003 A2974 9999N
SPECI RJCK 112309Z 18008KT 2400 R17/P2000N BCFG BR FEW001 BKN003 16/16 Q1007 RMK 1ST001 5ST003 A2974 9999N
SPECI RJCK 112314Z 18008KT 3200 R17/P2000N BCFG BR FEW001 SCT003 15/15 Q1007 RMK 1ST001 4ST003 A2974 9999N
METAR RJCK 112300Z 17007KT 150V210 1000 R17/P2000N BCFG BR FEW001 BKN003 16/15 Q1007 RMK 1ST001 5ST003 A2974 8000N
SPECI RJCK 112319Z 19008KT 150V230 5000 PRFG BR FEW001 SCT003 BKN/// 16/15 Q1007 RMK 1ST001 3ST003 A2974 FG SE-SW
METAR RJCK 120000Z 18008KT 9999 PRFG FEW001 BKN/// 18/15 Q1007 RMK 1ST001 A2974 FG S-SW
METAR RJCK 120100Z 20008KT 160V230 9999 FEW030 SCT/// 19/16 Q1006 RMK 1CU030 A2973
METAR RJCK 120200Z 20009KT 9999 FEW030 20/15 Q1006 RMK 1CU030 A2972
METAR RJCK 120300Z 20011KT 9999 FEW030 20/16 Q1006 RMK 1CU030 A2971
METAR RJCK 120400Z 17010KT 140V220 9999 PRFG FEW001 18/14 Q1005 RMK 1ST001 A2970 FG SE-S
METAR RJCK 120500Z 17011KT 9999 PRFG FEW001 18/15 Q1005 RMK 1ST001 A2969 FG SE-SW
METAR RJCK 120600Z 19012KT 9999 PRFG FEW001 18/15 Q1004 RMK 1ST001 A2967 FG S-SW
METAR RJCK 120700Z 17010KT 9999 PRFG FEW001 SCT003 16/15 Q1004 RMK 2ST001 3ST003 A2966 3500S FG E-SW
SPECI RJCK 120710Z 16008KT 4900 R17/P2000N BCFG BR FEW001 SCT003 BKN006 16/14 Q1004 RMK 2ST001 3ST003 5ST006 A2966 1500S
SPECI RJCK 120714Z 16007KT 3100 R17/P2000N BCFG BR FEW001 SCT003 BKN006 16/15 Q1004 RMK 2ST001 3ST003 5ST006 A2966 1000S
SPECI RJCK 120717Z 16007KT 2300 R17/P2000N BCFG BR FEW001 SCT003 BKN006 15/14 Q1004 RMK 2ST001 4ST003 6ST006 A2966 1000S
SPECI RJCK 120724Z 15006KT 1500 R17/P2000N BCFG BR FEW001 SCT003 BKN006 15/14 Q1004 RMK 2ST001 4ST003 6ST006 A2966
SPECI RJCK 120729Z 15005KT 1400 R17/P2000N BCFG BR FEW001 SCT002 BKN003 14/14 Q1004 RMK 2ST001 4ST002 5ST003 A2966
SPECI RJCK 120736Z 16004KT 120V200 0800 R17/P2000N FG VV002 14/14 Q1004 RMK A2966
METAR RJCK 120800Z 08003KT 040V150 1000 R17/P2000N BCFG BR SCT001 BKN002 BKN003 14/14 Q1004 RMK 3ST001 5ST002 6ST003 A2966
SPECI RJCK 120836Z 11004KT 040V140 0500 R17/1400VP2000D FG BKN001 BKN002 14/14 Q1004 RMK 5ST001 7ST002 A2966
SPECI RJCK 120843Z 11004KT 080V160 0500 R17/0800VP2000D FG VV001 14/14 Q1004 RMK A2966
SPECI RJCK 120845Z 11004KT 080V160 0500 R17/0650VP2000D FG VV001 14/14 Q1004 RMK A2966
SPECI RJCK 120847Z 11004KT 080V160 0400 R17/0400VP2000D FG VV001 14/14 Q1004 RMK A2966
SPECI RJCK 120849Z 11004KT 080V140 0200 R17/0400VP2000D FG VV001 14/14 Q1004 RMK A2966
SPECI RJCK 120902Z 10004KT 070V130 0200 R17/0375V1200D FG VV001 13/13 Q1004 RMK A2966
METAR RJCK 120900Z 10003KT 040V130 0300 R17/0400V1300D FG VV001 14/14 Q1004 RMK A2966
SPECI RJCK 120909Z 11004KT 070V150 0300 R17/0375V0750U FG VV001 13/13 Q1004 RMK A2966
SPECI RJCK 120913Z 11004KT 070V150 0200 R17/0350V0750D FG VV001 13/13 Q1004 RMK A2966
SPECI RJCK 120929Z 11003KT 050V140 0300 R17/0325V0900U FG VV001 13/13 Q1004 RMK A2966
SPECI RJCK 120933Z 10003KT 040V140 0200 R17/0300V0900N FG VV001 13/13 Q1004 RMK A2966
SPECI RJCK 120940Z 11003KT 040V140 0200 R17/0300V0600N FG VV001 13/13 Q1004 RMK A2966
SPECI RJCK 120953Z VRB02KT 0200 R17/0400N FG VV001 13/13 Q1004 RMK A2966
METAR RJCK 121000Z VRB02KT 0200 R17/0325V0600N FG VV001 13/13 Q1004 RMK A2966
SPECI RJCK 121020Z VRB02KT 0500 R17/0400V1000D FG VV001 13/13 Q1004 RMK A2965
SPECI RJCK 121037Z VRB02KT 0300 R17/0450V0700N FG VV001 13/13 Q1004 RMK A2966
SPECI RJCK 121051Z VRB02KT 0200 R17/0300V0500N FG VV001 13/13 Q1004 RMK A2966
METAR RJCK 121100Z 04003KT 350V090 0200 R17/0250V0400N FG VV001 13/13 Q1004 RMK A2966
SPECI RJCK 121117Z 04004KT 010V080 0200 R35/0250V0400N FG VV001 13/13 Q1004 RMK A2966
METAR RJCK 121200Z AUTO 05004KT 020V090 0000 R35/0300V0450N FG OVC000 13/13 Q1004 RMK A2966
SPECI RJCK 121209Z AUTO 04004KT 0000 R17/0250N FG OVC000 13/13 Q1004 RMK A2967
METAR RJCK 121300Z AUTO VRB02KT 0100 R17/0325N FG OVC000 13/13 Q1004 RMK A2966
METAR RJCK 121400Z AUTO 04003KT 360V060 0000 R17/0275N FG OVC000 13/13 Q1004 RMK A2965
METAR RJCK 121500Z AUTO VRB02KT 0000 R17/0325N FG OVC000 13/13 Q1003 RMK A2964
METAR RJCK 121600Z AUTO VRB02KT 0000 R17/0250N FG OVC000 13/13 Q1003 RMK A2964
METAR RJCK 121700Z AUTO 18004KT 0100 R17/0375V0550N FG OVC000 12/12 Q1003 RMK A2962
METAR RJCK 121800Z AUTO VRB01KT 0200 R17/0400V0600N FG OVC000 12/12 Q1003 RMK A2962
METAR RJCK 121900Z AUTO VRB01KT 0000 R17/0200N FG BKN000 OVC001 12/12 Q1003 RMK A2962
METAR RJCK 122000Z AUTO VRB02KT 0100 R17/0200V0250N FG OVC000 13/13 Q1003 RMK A2962
METAR RJCK 122100Z AUTO 36003KT 310V030 0100 R17/0150VP2000D FG BKN000 13/13 Q1003 RMK A2962
SPECI RJCK 122130Z AUTO VRB01KT 0800 R17/0200V0800N FG OVC000 13/13 Q1003 RMK A2962
SPECI RJCK 122134Z AUTO VRB01KT 4800 R17/0200VP2000U BR OVC000 13/13 Q1003 RMK A2962
SPECI RJCK 122136Z AUTO VRB02KT 9999 R17/0200VP2000U OVC000 14/14 Q1003 RMK A2962
SPECI RJCK 122137Z AUTO VRB02KT 9999 R17/0225VP2000U OVC000 14/14 Q1003 RMK A2962
SPECI RJCK 122138Z AUTO 17003KT 150V240 9999 R17/0275VP2000U OVC000 14/14 Q1003 RMK A2962
SPECI RJCK 122139Z AUTO 17003KT 150V240 9000 R17/0500VP2000U OVC000 14/14 Q1003 RMK A2962
SPECI RJCK 122151Z AUTO VRB01KT 0900 R17/0900VP2000D FG FEW000 OVC001 14/14 Q1003 RMK A2962
SPECI RJCK 122153Z AUTO VRB01KT 0400 R17/0450VP2000D FG FEW000 OVC001 14/14 Q1003 RMK A2962
SPECI RJCK 122154Z AUTO VRB01KT 0300 R17/0375VP2000D FG FEW000 OVC001 14/14 Q1003 RMK A2962
SPECI RJCK 122155Z AUTO VRB01KT 0200 R17/0275VP2000D FG FEW000 OVC001 14/14 Q1003 RMK A2962
SPECI RJCK 122156Z AUTO VRB01KT 0300 R17/0275VP2000D FG FEW000 OVC001 14/14 Q1003 RMK A2962
SPECI RJCK 122202Z AUTO VRB02KT 0400 R17/0275V2000U FG OVC001 14/14 Q1003 RMK A2962
SPECI RJCK 122203Z AUTO VRB02KT 0300 R17/0275V2000D FG OVC001 14/14 Q1003 RMK A2963
METAR RJCK 122200Z AUTO VRB02KT 0400 R17/0275V2000U FG OVC001 14/14 Q1003 RMK A2962
SPECI RJCK 122220Z AUTO VRB02KT 0300 R35/1100VP2000U FG OVC001 14/14 Q1003 RMK A2963
SPECI RJCK 122232Z AUTO VRB02KT 0600 R17/0650V1300D FG OVC000 15/15 Q1003 RMK A2964
SPECI RJCK 122233Z AUTO VRB02KT 1700 R17/0650V1700N BR OVC001 15/15 Q1003 RMK A2964
SPECI RJCK 122235Z AUTO VRB02KT 2300 R17/0650VP2000U BR OVC001 15/15 Q1003 RMK A2964
SPECI RJCK 122237Z AUTO VRB02KT 0600 R17/0650VP2000U FG OVC001 15/15 Q1003 RMK A2964
SPECI RJCK 122241Z AUTO VRB02KT 0600 R17/0800VP2000D FG OVC001 15/15 Q1003 RMK A2964
SPECI RJCK 122243Z AUTO VRB02KT 0500 R17/0800VP2000D FG OVC001 15/15 Q1003 RMK A2964
SPECI RJCK 122244Z AUTO VRB02KT 0400 R17/0400VP2000D FG OVC001 15/15 Q1003 RMK A2964
SPECI RJCK 122246Z AUTO VRB02KT 0400 R17/0400V1700D FG OVC001 15/15 Q1003 RMK A2963
SPECI RJCK 122250Z AUTO VRB02KT 0500 R17/0400V1700D FG FEW000 OVC001 15/15 Q1003 RMK A2964
SPECI RJCK 122251Z AUTO VRB02KT 1000 R17/0400V1700U BR FEW000 OVC001 15/15 Q1003 RMK A2964
SPECI RJCK 122256Z AUTO 03003KT 350V060 1200 R17/0600V1700N BR FEW000 OVC001 15/15 Q1003 RMK A2963
SPECI RJCK 122259Z AUTO 03003KT 350V080 1700 R17/0750V1700U BR FEW000 OVC001 15/15 Q1003 RMK A2963
METAR RJCK 122300Z 03003KT 350V080 1500 R17/0750VP2000U BCFG BR SCT001 BKN002 BKN003 15/15 Q1003 RMK 3ST001 5ST002 7ST003 A2963
SPECI RJCK 122303Z 04003KT 010V080 1600 R17/0750VP2000U BCFG BR SCT001 BKN002 BKN003 15/15 Q1003 RMK 3ST001 5ST002 7ST003 A2964
SPECI RJCK 122306Z 05003KT 010V100 2000 R17/0900VP2000U BCFG BR SCT001 BKN002 BKN003 15/15 Q1003 RMK 3ST001 5ST002 6ST003 A2963
SPECI RJCK 122309Z VRB02KT 2400 R17/1000VP2000U BCFG BR FEW001 SCT002 BKN003 15/15 Q1003 RMK 2ST001 4ST002 6ST003 A2963
SPECI RJCK 122331Z VRB02KT 3200 BCFG BR FEW001 SCT002 BKN003 15/15 Q1003 RMK 2ST001 4ST002 6ST003 A2963
SPECI RJCK 122351Z 04003KT 360V090 5000 PRFG BR FEW001 SCT003 BKN004 15/15 Q1003 RMK 1ST001 4ST003 7ST004 A2963 FG N
METAR RJCK 130000Z 03003KT 350V090 7000 FEW001 BKN004 BKN005 15/15 Q1003 RMK 1ST001 5ST004 7ST005 A2963
SPECI RJCK 130012Z 01004KT 340V060 8000 FEW002 SCT004 BKN005 16/16 Q1003 RMK 1ST002 4ST004 6ST005 A2963
SPECI RJCK 130022Z 36004KT 340V040 9999 FEW002 SCT005 BKN006 16/16 Q1003 RMK 1ST002 4ST005 5ST006 A2963
SPECI RJCK 130029Z 04003KT 340V110 9999 FEW003 SCT006 BKN/// 16/16 Q1003 RMK 1ST003 4ST006 A2962
METAR RJCK 130100Z 06004KT 340V110 9999 FEW015 BKN/// 19/17 Q1003 RMK 1ST015 A2962
METAR RJCK 130200Z VRB03KT 9999 PRFG FEW001 BKN/// 21/17 Q1002 RMK 1ST001 A2961 FG SE-SW
SPECI RJCK 130207Z 17010KT 9999 PRFG FEW001 BKN/// 20/16 Q1002 RMK 1ST001 A2961 FG SE-SW
METAR RJCK 130300Z 17012KT 9999 FEW003 BKN/// 19/16 Q1003 RMK 1ST003 A2962
METAR RJCK 130400Z 17009KT 9999 FEW030CB SCT/// 19/15 Q1002 RMK 1CB030 A2961 CB N
METAR RJCK 130500Z 16007KT 110V190 9999 PRFG FEW001 FEW030CB SCT/// 18/15 Q1003 RMK 1ST001 1CB030 A2962 3000S CB NW FG SE-S
SPECI RJCK 130508Z 17011KT 8000 R35/0325VP2000D PRFG FEW001 SCT005 FEW030CB 17/15 Q1003 RMK 2ST001 3ST005 1CB030 A2962 1000S CB NW FG SE-SW
SPECI RJCK 130511Z 17012KT 4900 R35/0325VP2000D PRFG BR FEW001 SCT005 FEW030CB 17/15 Q1003 RMK 2ST001 3ST005 1CB030 A2963 1000S CB NW FG SE-W
SPECI RJCK 130514Z 17012KT 3100 R35/0325VP2000D BCFG BR FEW001 SCT003 BKN005 17/15 Q1003 RMK 2ST001 3ST003 5ST005 A2963
SPECI RJCK 130518Z 18013KT 2300 R17/P2000N BCFG BR FEW001 BKN004 BKN005 16/15 Q1003 RMK 2ST001 5ST004 7ST005 A2963
SPECI RJCK 130522Z 18014KT 1500 R17/1600VP2000N BCFG BR SCT001 BKN003 BKN004 17/15 Q1003 RMK 3ST001 5ST003 7ST004 A2963
SPECI RJCK 130528Z 19013KT 1400 R17/1400VP2000N BR SCT001 BKN002 BKN003 17/15 Q1003 RMK 3ST001 5ST002 7ST003 A2962
SPECI RJCK 130546Z VRB03KT 1500 R17/P2000N BR FEW001 SCT002 BKN003 15/14 Q1004 RMK 2ST001 4ST002 7ST003 A2965
SPECI RJCK 130549Z VRB02KT 1600 R17/P2000N BR FEW001 SCT003 BKN004 15/15 Q1004 RMK 1ST001 4ST003 7ST004 A2965
SPECI RJCK 130551Z VRB02KT 2400 R17/P2000N BR FEW001 SCT003 BKN004 15/15 Q1004 RMK 1ST001 4ST003 7ST004 A2965
SPECI RJCK 130553Z VRB02KT 3200 R17/P2000N BR FEW001 SCT003 BKN004 15/15 Q1004 RMK 1ST001 3ST003 7ST004 A2965
METAR RJCK 130600Z 06004KT 030V140 5000 BR FEW001 SCT003 BKN004 16/15 Q1004 RMK 1ST001 3ST003 7ST004 A2966 P/RR
SPECI RJCK 130607Z 07003KT 010V110 7000 FEW002 SCT004 BKN030 FEW030CB 16/15 Q1004 RMK 1ST002 4ST004 5CU030 1CB030 A2966 CB N
METAR RJCK 130700Z 02011KT 360V060 9999 FEW003 SCT015 BKN025 19/16 Q1004 RMK 1ST003 3ST015 6CU025 A2966
METAR RJCK 130700Z 02011KT 360V060 9999 FEW003 SCT015 BKN025 19/16 Q1004 RMK 1ST003 3ST015 6CU025 A2966
METAR RJCK 130800Z 05010KT 020V080 9999 FEW005 SCT018 BKN150 18/16 Q1004 RMK 1ST005 3ST018 5AC150 A2965
METAR RJCK 130900Z 03009KT 9999 FEW010 SCT050 BKN150 18/16 Q1004 RMK 1ST010 3CU050 5AC150 A2966
METAR RJCK 131000Z 03007KT 010V070 9999 FEW005 SCT010 BKN130 17/15 Q1004 RMK 1ST005 3ST010 5AC130 A2967
METAR RJCK 131100Z 03007KT 360V070 9999 FEW005 SCT012 BKN130 16/15 Q1005 RMK 1ST005 4ST012 6AC130 A2969
METAR RJCK 131200Z AUTO 04004KT 9999 BKN008 OVC013 15/14 Q1005 RMK A2970
SPECI RJCK 131207Z AUTO 03005KT 9999 SCT008 OVC012 15/14 Q1005 RMK A2970
SPECI RJCK 131218Z AUTO 03006KT 350V060 9999 BKN008 OVC012 15/14 Q1006 RMK A2971
SPECI RJCK 131250Z AUTO 04007KT 360V070 9999 SCT008 OVC010 15/14 Q1006 RMK A2971
METAR RJCK 131300Z AUTO 05007KT 9999 FEW007 OVC010 15/14 Q1006 RMK A2971
METAR RJCK 131400Z AUTO 06004KT 9999 SCT006 OVC009 15/13 Q1006 RMK A2971
METAR RJCK 131500Z AUTO 03003KT 9999 OVC010 14/13 Q1006 RMK A2971
METAR RJCK 131600Z AUTO 05004KT 9999 SCT007 BKN017 BKN019 14/13 Q1005 RMK A2969
METAR RJCK 131700Z AUTO VRB01KT 9999 FEW005 OVC011 13/13 Q1006 RMK A2971
METAR RJCK 131800Z AUTO VRB02KT 9999 OVC009 14/13 Q1006 RMK A2971
METAR RJCK 131900Z AUTO 07005KT 9999 BKN008 OVC020 13/12 Q1006 RMK A2972
METAR RJCK 132000Z AUTO VRB02KT 9999 FEW005 BKN007 OVC018 13/12 Q1006 RMK A2973
METAR RJCK 132100Z AUTO 02007KT 9999 FEW006 OVC019 14/13 Q1007 RMK A2975
METAR RJCK 132200Z AUTO 04005KT 360V080 9999 FEW009 SCT014 OVC018 15/13 Q1008 RMK A2977
SPECI RJCK 132231Z AUTO 07005KT 030V120 9999 BKN009 OVC019 15/13 Q1007 RMK A2976
SPECI RJCK 132256Z AUTO 07005KT 030V100 9999 BKN010 OVC019 15/13 Q1008 RMK A2977
METAR RJCK 132300Z 07005KT 040V100 9999 FEW008 BKN010 BKN020 15/13 Q1008 RMK 1ST008 5ST010 7SC020 A2977
METAR RJCK 140000Z 05005KT 350V100 9999 FEW010 BKN015 BKN020 16/13 Q1008 RMK 1ST010 5ST015 7SC020 A2977
METAR RJCK 140100Z 07003KT 010V120 9999 FEW010 BKN015 17/14 Q1008 RMK 1ST010 6ST015 A2979
METAR RJCK 140200Z 03003KT 290V090 9999 FEW010 BKN015 17/14 Q1009 RMK 1ST010 6ST015 A2979
METAR RJCK 140300Z 19006KT 9999 FEW010 BKN015 16/13 Q1009 RMK 1ST010 6ST015 A2980
METAR RJCK 140400Z VRB04KT 9999 FEW010 BKN018 19/15 Q1008 RMK 1ST010 6ST018 A2978
METAR RJCK 140500Z 16008KT 9999 FEW010 BKN020 BKN030 17/14 Q1008 RMK 1ST010 5CU020 6CU030 A2978
METAR RJCK 140600Z 19009KT 9999 FEW005 BKN018 BKN025 15/13 Q1008 RMK 1ST005 5ST018 6CU025 A2978
METAR RJCK 140700Z 21011KT 9999 FEW010 SCT015 BKN025 14/12 Q1009 RMK 1ST010 3ST015 6CU025 A2980
METAR RJCK 140800Z 20007KT 9999 FEW010 BKN025 14/12 Q1009 RMK 1ST010 6CU025 A2981
METAR RJCK 140900Z 20005KT 9999 FEW010 BKN020 14/11 Q1010 RMK 1ST010 6CU020 A2983
METAR RJCK 141000Z 20006KT 9999 FEW010 BKN020 13/11 Q1011 RMK 1ST010 6CU020 A2985
METAR RJCK 141100Z 19004KT 9999 FEW008 BKN015 13/11 Q1011 RMK 1ST008 6ST015 A2987
METAR RJCK 141200Z AUTO 20003KT 160V230 9999 SCT018 BKN023 OVC030 13/11 Q1011 RMK A2987
SPECI RJCK 141217Z AUTO 20005KT 9999 BKN009 BKN014 BKN023 12/11 Q1011 RMK A2988
SPECI RJCK 141248Z AUTO VRB02KT 9999 OVC010 12/11 Q1011 RMK A2988
METAR RJCK 141300Z AUTO VRB01KT 9999 OVC010 12/11 Q1011 RMK A2987
METAR RJCK 141400Z AUTO 23003KT 9999 OVC010 12/11 Q1011 RMK A2988
METAR RJCK 141500Z AUTO 17002KT 9999 OVC010 12/11 Q1011 RMK A2987
METAR RJCK 141600Z AUTO 36002KT 9999 FEW008 OVC010 12/11 Q1011 RMK A2987
METAR RJCK 141700Z AUTO 03002KT 9999 FEW006 SCT010 BKN011 12/12 Q1011 RMK A2986
METAR RJCK 141800Z AUTO 03002KT 9000 OVC005 12/12 Q1011 RMK A2987
METAR RJCK 141900Z AUTO VRB01KT 6000 FEW002 SCT005 OVC007 12/12 Q1012 RMK A2989
METAR RJCK 142000Z AUTO VRB02KT 8000 FEW001 SCT014 OVC015 13/12 Q1012 RMK A2989
METAR RJCK 142100Z AUTO 19004KT 4700 BR OVC003 13/12 Q1012 RMK A2989
SPECI RJCK 142131Z AUTO 18003KT 5000 BR OVC002 13/13 Q1012 RMK A2990
SPECI RJCK 142133Z AUTO 18003KT 3700 BR OVC002 13/12 Q1012 RMK A2989
SPECI RJCK 142147Z AUTO 18003KT 130V220 7000 BKN002 OVC005 13/13 Q1012 RMK A2989
SPECI RJCK 142155Z AUTO 16004KT 130V190 4300 BR BKN003 OVC005 13/13 Q1012 RMK A2990
METAR RJCK 142200Z AUTO 17004KT 5000 BR BKN003 OVC005 13/13 Q1012 RMK A2989
METAR RJCK 142300Z 17004KT 140V220 3500 -DZ BR FEW002 SCT003 BKN005 14/12 Q1012 RMK 1ST002 4ST003 7ST005 A2989
SPECI RJCK 142334Z 19004KT 150V230 5000 -DZ BR SCT003 BKN005 14/13 Q1012 RMK 3ST003 6ST005 A2989
METAR RJCK 150000Z 18005KT 150V210 7000 -DZ FEW003 BKN005 BKN008 14/12 Q1011 RMK 2ST003 5ST005 6ST008 A2988
SPECI RJCK 150030Z 19005KT 160V230 8000 -DZ FEW004 SCT005 BKN010 14/13 Q1011 RMK 2ST004 4ST005 6ST010 A2988
METAR RJCK 150100Z 18005KT 8000 -DZ FEW006 BKN010 BKN015 15/13 Q1011 RMK 2ST006 5ST010 6ST015 A2987
METAR RJCK 150200Z 17006KT 140V210 9999 FEW004 SCT010 BKN018 16/13 Q1011 RMK 1ST004 4ST010 6ST018 A2987
METAR RJCK 150300Z 18007KT 9999 FEW005 SCT010 BKN015 16/13 Q1011 RMK 1ST005 3ST010 6ST015 A2986
METAR RJCK 150400Z 20012KT 9999 FEW005 SCT010 BKN015 14/12 Q1011 RMK 1ST005 3ST010 6ST015 A2986
METAR RJCK 150500Z 19011KT 9999 FEW004 SCT008 BKN015 15/13 Q1010 RMK 1ST004 3ST008 6ST015 A2985
SPECI RJCK 150543Z 21008KT 9999 FEW004 BKN008 BKN015 14/13 Q1010 RMK 1ST004 5ST008 6ST015 A2985
METAR RJCK 150600Z 22008KT 9999 FEW004 BKN008 BKN012 14/12 Q1010 RMK 1ST004 5ST008 6ST012 A2984
METAR RJCK 150700Z 19005KT 160V250 9999 FEW005 BKN009 BKN015 15/13 Q1010 RMK 1ST005 5ST009 6ST015 A2983
METAR RJCK 150800Z 22007KT 9999 FEW005 BKN009 BKN015 13/12 Q1010 RMK 1ST005 5ST009 6ST015 A2984
METAR RJCK 150900Z 19005KT 9999 FEW003 SCT005 BKN006 13/12 Q1010 RMK 1ST003 3ST005 6ST006 A2984
SPECI RJCK 150913Z 18005KT 8000 FEW003 BKN005 BKN006 12/12 Q1010 RMK 1ST003 5ST005 6ST006 A2983
SPECI RJCK 150936Z 18006KT 4900 BR FEW002 SCT004 BKN005 12/12 Q1010 RMK 1ST002 3ST004 6ST005 A2983
SPECI RJCK 150948Z 20005KT 3100 BR FEW002 BKN004 BKN005 12/12 Q1010 RMK 1ST002 5ST004 6ST005 A2983
METAR RJCK 151000Z VRB02KT 3000 BR FEW002 SCT003 BKN004 12/12 Q1010 RMK 1ST002 3ST003 6ST004 A2982
SPECI RJCK 151019Z 00000KT 3200 BR FEW002 BKN004 BKN005 12/12 Q1010 RMK 1ST002 5ST004 6ST005 A2983
SPECI RJCK 151028Z VRB01KT 3500 BR FEW002 SCT004 BKN005 12/12 Q1010 RMK 1ST002 4ST004 6ST005 A2983
SPECI RJCK 151051Z 23002KT 5000 BR FEW002 BKN005 BKN008 13/12 Q1010 RMK 1ST002 5ST005 6ST008 A2984
METAR RJCK 151100Z VRB01KT 8000 FEW003 SCT005 BKN008 13/13 Q1010 RMK 1ST003 4ST005 6ST008 A2983
SPECI RJCK 151133Z 15003KT 060V200 8000 FEW003 BKN005 BKN008 13/13 Q1010 RMK 1ST003 5ST005 6ST008 A2984
SPECI RJCK 151141Z 16003KT 4900 BR FEW003 SCT004 BKN005 13/13 Q1010 RMK 1ST003 3ST004 6ST005 A2984

■ TAF(飛行場予報)

TAF RJCK 151105Z 1512/1618 16005KT 7000 FEW003 BKN015
         TEMPO 1512/1600 0700 FG VV001
         TEMPO 1600/1606 2000 BR FEW003 BKN006
         TEMPO 1606/1612 0700 FG VV001
         TEMPO 1612/1618 1500 SHRA BR FEW001 BKN003

お知らせ

新着情報

  • 太陽光発電量推算
  • 気象予報士試験過去問・講座
  • Yahoo Weather shop
  • メルカリ Weather shop
  • BASE Weather shop

ご案内